createdAt,value
2018-09-08T00:02:17.054Z,100630.95
2018-09-08T00:04:45.534Z,100633.42
2018-09-08T00:07:19.223Z,100632.28
2018-09-08T00:09:47.635Z,100634.61
2018-09-08T00:12:16.066Z,100636.23
2018-09-08T00:14:43.782Z,100636.98
2018-09-08T00:17:17.539Z,100634.88
2018-09-08T00:19:51.096Z,100632.12
2018-09-08T00:22:24.846Z,100637.76
2018-09-08T00:24:58.850Z,100638.41
2018-09-08T00:27:31.400Z,100633.61
2018-09-08T00:30:01.823Z,100639.73
2018-09-08T00:32:30.314Z,100633.57
2018-09-08T00:34:58.715Z,100636.40
2018-09-08T00:37:27.310Z,100636.91
2018-09-08T00:39:55.791Z,100639.15
2018-09-08T00:42:24.266Z,100647.17
2018-09-08T00:44:52.832Z,100648.04
2018-09-08T00:47:21.291Z,100647.17
2018-09-08T00:49:49.756Z,100652.77
2018-09-08T00:52:18.426Z,100657.84
2018-09-08T00:54:46.895Z,100652.62
2018-09-08T00:57:15.302Z,100656.34
2018-09-08T00:59:43.924Z,100657.41
2018-09-08T01:02:12.426Z,100664.94
2018-09-08T01:04:40.910Z,100667.73
2018-09-08T01:07:14.744Z,100668.61
2018-09-08T01:09:43.186Z,100670.45
2018-09-08T01:12:11.606Z,100673.20
2018-09-08T01:14:40.163Z,100674.05
2018-09-08T01:17:08.636Z,100675.02
2018-09-08T01:19:37.118Z,100672.58
2018-09-08T01:22:05.795Z,100672.59
2018-09-08T01:24:34.202Z,100678.52
2018-09-08T01:27:02.590Z,100688.24
2018-09-08T01:29:31.219Z,100684.83
2018-09-08T01:31:59.712Z,100687.95
2018-09-08T01:34:28.219Z,100691.44
2018-09-08T01:36:56.747Z,100688.05
2018-09-08T01:39:25.174Z,100680.23
2018-09-08T01:41:53.627Z,100684.14
2018-09-08T01:44:22.231Z,100688.55
2018-09-08T01:46:50.659Z,100687.98
2018-09-08T01:49:19.066Z,100690.20
2018-09-08T01:51:47.711Z,100689.70
2018-09-08T01:54:16.214Z,100703.96
2018-09-08T01:56:44.635Z,100696.90
2018-09-08T01:59:13.300Z,100695.78
2018-09-08T02:01:41.810Z,100695.16
2018-09-08T02:04:10.233Z,100696.24
2018-09-08T02:06:40.922Z,100695.91
2018-09-08T02:09:09.782Z,100686.94
2018-09-08T02:11:38.263Z,100690.05
2018-09-08T02:14:07.130Z,100684.03
2018-09-08T02:16:35.511Z,100683.86
2018-09-08T02:19:03.920Z,100684.90
2018-09-08T02:21:32.598Z,100687.19
2018-09-08T02:24:01.011Z,100689.52
2018-09-08T02:26:29.540Z,100691.02
2018-09-08T02:28:58.291Z,100685.31
2018-09-08T02:31:26.704Z,100687.89
2018-09-08T02:33:55.103Z,100690.14
2018-09-08T02:36:23.523Z,100681.73
2018-09-08T02:38:51.992Z,100687.55
2018-09-08T02:41:20.423Z,100692.23
2018-09-08T02:43:49.050Z,100686.50
2018-09-08T02:46:17.596Z,100689.92
2018-09-08T02:48:46.067Z,100692.77
2018-09-08T02:51:13.627Z,100693.98
2018-09-08T02:53:40.838Z,100695.32
2018-09-08T02:56:08.044Z,100698.43
2018-09-08T02:58:35.279Z,100694.25
2018-09-08T03:01:04.051Z,100696.80
2018-09-08T03:03:31.334Z,100702.56
2018-09-08T03:05:58.568Z,100701.46
2018-09-08T03:08:25.772Z,100704.26
2018-09-08T03:10:53.024Z,100706.25
2018-09-08T03:13:20.426Z,100707.13
2018-09-08T03:15:47.631Z,100704.82
2018-09-08T03:18:14.875Z,100712.27
2018-09-08T03:20:42.219Z,100712.06
2018-09-08T03:23:09.439Z,100708.45
2018-09-08T03:25:36.711Z,100704.96
2018-09-08T03:28:04.120Z,100696.47
2018-09-08T03:30:31.362Z,100707.52
2018-09-08T03:32:58.567Z,100707.09
2018-09-08T03:35:25.795Z,100712.44
2018-09-08T03:37:53.024Z,100715.86
2018-09-08T03:40:20.315Z,100712.94
2018-09-08T03:42:47.726Z,100712.30
2018-09-08T03:45:14.934Z,100711.84
2018-09-08T03:47:42.206Z,100721.59
2018-09-08T03:50:09.475Z,100718.66
2018-09-08T03:52:36.715Z,100719.91
2018-09-08T03:55:03.939Z,100716.06
2018-09-08T03:57:31.299Z,100720.81
2018-09-08T03:59:58.539Z,100717.28
2018-09-08T04:02:25.764Z,100714.54
2018-09-08T04:04:54.426Z,100713.56
2018-09-08T04:07:22.903Z,100725.84
2018-09-08T04:09:51.354Z,100726.42
2018-09-08T04:12:19.843Z,100722.21
2018-09-08T04:14:48.309Z,100731.83
2018-09-08T04:17:16.818Z,100732.77
2018-09-08T04:19:45.482Z,100745.36
2018-09-08T04:22:13.934Z,100746.75
2018-09-08T04:24:42.388Z,100747.39
2018-09-08T04:27:11.051Z,100753.72
2018-09-08T04:29:39.516Z,100752.09
2018-09-08T04:32:08.067Z,100753.56
2018-09-08T04:34:36.626Z,100757.73
2018-09-08T04:37:05.098Z,100762.11
2018-09-08T04:39:33.515Z,100767.91
2018-09-08T04:42:02.131Z,100763.57
2018-09-08T04:44:30.654Z,100759.71
2018-09-08T04:46:59.179Z,100765.85
2018-09-08T04:49:27.826Z,100768.12
2018-09-08T04:51:56.249Z,100768.93
2018-09-08T04:54:24.750Z,100772.55
2018-09-08T04:56:53.821Z,100767.15
2018-09-08T04:59:22.243Z,100765.52
2018-09-08T05:01:50.647Z,100767.48
2018-09-08T05:04:19.599Z,100769.87
2018-09-08T05:06:48.011Z,100773.21
2018-09-08T05:09:17.609Z,100769.20
2018-09-08T05:11:46.143Z,100769.66
2018-09-08T05:14:14.628Z,100775.69
2018-09-08T05:16:43.111Z,100777.10
2018-09-08T05:19:11.674Z,100784.61
2018-09-08T05:21:40.119Z,100784.88
2018-09-08T05:24:08.867Z,100784.49
2018-09-08T05:26:37.486Z,100788.92
2018-09-08T05:29:06.010Z,100790.14
2018-09-08T05:31:34.490Z,100791.02
2018-09-08T05:34:02.961Z,100792.58
2018-09-08T05:36:31.358Z,100797.62
2018-09-08T05:38:59.787Z,100792.90
2018-09-08T05:41:28.444Z,100791.61
2018-09-08T05:43:56.842Z,100803.83
2018-09-08T05:46:25.383Z,100801.58
2018-09-08T05:48:54.049Z,100800.38
2018-09-08T05:51:22.486Z,100805.22
2018-09-08T05:53:50.935Z,100804.20
2018-09-08T05:56:19.612Z,100810.53
2018-09-08T05:58:48.126Z,100809.11
2018-09-08T06:01:16.545Z,100810.22
2018-09-08T06:03:45.190Z,100817.02
2018-09-08T06:06:13.594Z,100810.48
2018-09-08T06:08:42.167Z,100804.11
2018-09-08T06:11:10.662Z,100806.36
2018-09-08T06:13:39.103Z,100806.25
2018-09-08T06:16:07.754Z,100803.00
2018-09-08T06:18:36.213Z,100812.56
2018-09-08T06:21:04.809Z,100802.27
2018-09-08T06:23:33.246Z,100801.12
2018-09-08T06:26:01.678Z,100810.55
2018-09-08T06:28:30.128Z,100807.45
2018-09-08T06:30:58.953Z,100817.14
2018-09-08T06:33:27.547Z,100813.10
2018-09-08T06:35:55.935Z,100812.93
2018-09-08T06:38:24.323Z,100817.52
2018-09-08T06:40:52.930Z,100818.48
2018-09-08T06:43:21.530Z,100815.66
2018-09-08T06:45:50.166Z,100821.87
2018-09-08T06:48:18.915Z,100823.30
2018-09-08T06:50:47.464Z,100829.56
2018-09-08T06:53:15.935Z,100826.33
2018-09-08T06:55:44.469Z,100826.34
2018-09-08T06:58:12.931Z,100829.73
2018-09-08T07:00:41.419Z,100830.33
2018-09-08T07:03:09.923Z,100830.95
2018-09-08T07:05:38.406Z,100828.59
2018-09-08T07:08:06.871Z,100837.67
2018-09-08T07:10:35.501Z,100837.42
2018-09-08T07:13:03.967Z,100841.16
2018-09-08T07:15:32.499Z,100832.48
2018-09-08T07:18:01.155Z,100838.14
2018-09-08T07:20:29.754Z,100844.45
2018-09-08T07:22:58.186Z,100842.03
2018-09-08T07:25:26.674Z,100842.91
2018-09-08T07:27:55.163Z,100846.60
2018-09-08T07:30:23.638Z,100841.38
2018-09-08T07:32:52.258Z,100842.14
2018-09-08T07:35:20.679Z,100837.62
2018-09-08T07:37:49.122Z,100841.45
2018-09-08T07:40:17.624Z,100840.06
2018-09-08T07:42:46.094Z,100847.55
2018-09-08T07:45:14.631Z,100844.16
2018-09-08T07:47:43.668Z,100838.52
2018-09-08T07:50:12.120Z,100836.19
2018-09-08T07:52:40.583Z,100835.85
2018-09-08T07:55:09.217Z,100834.41
2018-09-08T07:57:38.001Z,100832.91
2018-09-08T08:00:06.554Z,100835.34
2018-09-08T08:02:37.155Z,100823.36
2018-09-08T08:05:05.626Z,100832.76
2018-09-08T08:07:34.159Z,100823.13
2018-09-08T08:10:02.583Z,100825.72
2018-09-08T08:12:31.024Z,100827.22
2018-09-08T08:14:59.435Z,100827.30
2018-09-08T08:17:28.059Z,100826.98
2018-09-08T08:19:56.483Z,100826.39
2018-09-08T08:22:25.092Z,100825.59
2018-09-08T08:24:53.640Z,100830.01
2018-09-08T08:27:22.098Z,100827.36
2018-09-08T08:29:50.505Z,100827.95
2018-09-08T08:32:19.229Z,100831.80
2018-09-08T08:34:47.630Z,100831.81
2018-09-08T08:37:16.136Z,100826.98
2018-09-08T08:39:44.743Z,100830.36
2018-09-08T08:42:13.478Z,100827.95
2018-09-08T08:44:41.883Z,100814.92
2018-09-08T08:47:10.355Z,100818.34
2018-09-08T08:49:38.873Z,100812.16
2018-09-08T08:52:18.763Z,100811.97
2018-09-08T08:54:49.063Z,100813.27
2018-09-08T08:57:18.135Z,100815.31
2018-09-08T08:59:46.886Z,100819.28
2018-09-08T09:02:15.319Z,100816.75
2018-09-08T09:04:43.992Z,100813.70
2018-09-08T09:07:13.446Z,100814.38
2018-09-08T09:09:43.311Z,100809.66
2018-09-08T09:12:11.800Z,100801.17
2018-09-08T09:14:40.813Z,100799.37
2018-09-08T09:17:08.882Z,100799.43
2018-09-08T09:19:48.625Z,100803.30
2018-09-08T09:22:29.354Z,100800.53
2018-09-08T09:25:05.825Z,100798.81
2018-09-08T09:27:35.882Z,100799.50
2018-09-08T09:30:04.822Z,100803.94
2018-09-08T09:32:33.331Z,100800.73
2018-09-08T09:35:02.063Z,100800.94
2018-09-08T09:37:30.612Z,100796.49
2018-09-08T09:39:59.853Z,100796.89
2018-09-08T09:42:28.696Z,100791.09
2018-09-08T09:44:57.204Z,100791.73
2018-09-08T09:47:25.775Z,100788.39
2018-09-08T09:49:54.386Z,100791.09
2018-09-08T09:52:22.874Z,100782.50
2018-09-08T09:54:51.416Z,100783.38
2018-09-08T09:57:20.042Z,100775.75
2018-09-08T09:59:48.595Z,100779.72
2018-09-08T10:02:47.568Z,100781.41
2018-09-08T10:05:17.860Z,100781.41
2018-09-08T10:07:46.536Z,100771.81
2018-09-08T10:10:16.780Z,100782.37
2018-09-08T10:12:45.242Z,100779.03
2018-09-08T10:15:13.682Z,100773.15
2018-09-08T10:17:43.548Z,100774.02
2018-09-08T10:20:16.047Z,100765.61
2018-09-08T10:22:44.595Z,100763.11
2018-09-08T10:25:14.714Z,100756.82
2018-09-08T10:27:44.129Z,100747.47
2018-09-08T10:30:13.658Z,100749.22
2018-09-08T10:32:43.157Z,100754.87
2018-09-08T10:35:11.635Z,100743.21
2018-09-08T10:37:40.146Z,100748.13
2018-09-08T10:40:09.621Z,100751.91
2018-09-08T10:42:38.044Z,100743.30
2018-09-08T10:45:06.771Z,100739.63
2018-09-08T10:47:35.479Z,100733.30
2018-09-08T10:50:04.335Z,100739.73
2018-09-08T10:52:35.419Z,100740.33
2018-09-08T10:55:03.979Z,100745.42
2018-09-08T10:57:32.743Z,100738.39
2018-09-08T11:00:02.112Z,100738.80
2018-09-08T11:02:31.557Z,100733.15
2018-09-08T11:05:00.455Z,100731.73
2018-09-08T11:07:29.259Z,100733.35
2018-09-08T11:09:57.910Z,100725.98
2018-09-08T11:12:26.429Z,100728.02
2018-09-08T11:14:54.902Z,100738.89
2018-09-08T11:17:23.535Z,100725.69
2018-09-08T11:19:52.002Z,100730.89
2018-09-08T11:22:20.530Z,100732.08
2018-09-08T11:24:49.167Z,100735.85
2018-09-08T11:27:17.683Z,100728.39
2018-09-08T11:29:46.204Z,100738.83
2018-09-08T11:32:14.882Z,100731.31
2018-09-08T11:34:43.302Z,100732.73
2018-09-08T11:37:11.698Z,100724.60
2018-09-08T11:39:40.183Z,100730.38
2018-09-08T11:42:08.674Z,100735.25
2018-09-08T11:44:37.146Z,100726.52
2018-09-08T11:47:05.699Z,100728.87
2018-09-08T11:49:34.138Z,100735.81
2018-09-08T11:52:02.558Z,100731.55
2018-09-08T11:54:31.887Z,100724.61
2018-09-08T11:57:00.312Z,100723.47
2018-09-08T11:59:28.771Z,100720.64
2018-09-08T12:01:57.426Z,100721.08
2018-09-08T12:04:25.927Z,100715.22
2018-09-08T12:06:54.447Z,100722.75
2018-09-08T12:09:22.927Z,100712.57
2018-09-08T12:11:51.406Z,100709.70
2018-09-08T12:14:19.894Z,100708.73
2018-09-08T12:16:48.717Z,100696.12
2018-09-08T12:19:17.329Z,100689.52
2018-09-08T12:21:45.771Z,100694.44
2018-09-08T12:24:14.583Z,100696.83
2018-09-08T12:26:43.019Z,100697.44
2018-09-08T12:29:11.406Z,100696.33
2018-09-08T12:31:39.851Z,100693.06
2018-09-08T12:34:08.335Z,100690.36
2018-09-08T12:36:36.847Z,100684.81
2018-09-08T12:39:07.574Z,100678.61
2018-09-08T12:41:36.082Z,100681.04
2018-09-08T12:44:04.614Z,100683.75
2018-09-08T12:46:33.410Z,100675.95
2018-09-08T12:49:01.919Z,100686.41
2018-09-08T12:51:31.493Z,100677.67
2018-09-08T12:54:00.166Z,100676.92
2018-09-08T12:56:28.584Z,100670.87
2018-09-08T12:59:01.005Z,100663.45
2018-09-08T13:01:29.669Z,100663.95
2018-09-08T13:03:58.088Z,100665.83
2018-09-08T13:06:26.503Z,100666.99
2018-09-08T13:09:07.640Z,100660.41
2018-09-08T13:11:36.518Z,100657.92
2018-09-08T13:14:05.030Z,100649.20
2018-09-08T13:16:33.483Z,100648.97
2018-09-08T13:19:01.895Z,100637.80
2018-09-08T13:21:30.344Z,100638.86
2018-09-08T13:23:58.873Z,100638.31
2018-09-08T13:26:27.370Z,100633.11
2018-09-08T13:28:55.806Z,100633.11
2018-09-08T13:31:24.203Z,100623.22
2018-09-08T13:33:52.813Z,100620.78
2018-09-08T13:36:21.282Z,100626.19
2018-09-08T13:38:49.717Z,100629.25
2018-09-08T13:41:18.405Z,100626.69
2018-09-08T13:43:46.971Z,100632.50
2018-09-08T13:46:15.510Z,100627.69
2018-09-08T13:48:44.136Z,100628.53
2018-09-08T13:51:12.654Z,100627.69
2018-09-08T13:53:41.190Z,100634.77
2018-09-08T13:56:09.819Z,100624.63
2018-09-08T13:58:38.244Z,100626.54
2018-09-08T14:01:06.740Z,100625.55
2018-09-08T14:03:35.287Z,100622.25
2018-09-08T14:06:03.755Z,100627.27
2018-09-08T14:08:32.147Z,100626.03
2018-09-08T14:11:00.703Z,100616.91
2018-09-08T14:13:29.307Z,100613.14
2018-09-08T14:15:57.866Z,100619.25
2018-09-08T14:18:26.350Z,100618.41
2018-09-08T14:20:54.853Z,100615.80
2018-09-08T14:23:23.402Z,100611.22
2018-09-08T14:25:52.055Z,100605.62
2018-09-08T14:28:20.851Z,100608.88
2018-09-08T14:30:49.546Z,100603.28
2018-09-08T14:33:18.415Z,100609.36
2018-09-08T14:35:46.871Z,100604.72
2018-09-08T14:38:15.271Z,100613.59
2018-09-08T14:40:44.002Z,100611.56
2018-09-08T14:43:12.474Z,100614.33
2018-09-08T14:45:40.963Z,100609.27
2018-09-08T14:48:09.627Z,100607.36
2018-09-08T14:50:38.035Z,100608.05
2018-09-08T14:53:06.842Z,100602.38
2018-09-08T14:55:35.627Z,100601.69
2018-09-08T14:58:04.163Z,100600.64
2018-09-08T15:00:32.627Z,100611.97
2018-09-08T15:03:01.311Z,100605.95
2018-09-08T15:05:29.763Z,100605.32
2018-09-08T15:07:58.258Z,100596.67
2018-09-08T15:10:26.891Z,100604.45
2018-09-08T15:12:55.296Z,100600.41
2018-09-08T15:15:23.807Z,100596.02
2018-09-08T15:17:52.329Z,100598.29
2018-09-08T15:20:20.718Z,100593.16
2018-09-08T15:22:49.135Z,100590.30
2018-09-08T15:25:17.600Z,100598.11
2018-09-08T15:27:46.206Z,100597.88
2018-09-08T15:30:14.699Z,100591.59
2018-09-08T15:32:43.247Z,100595.59
2018-09-08T15:35:11.595Z,100597.02
2018-09-08T15:37:40.111Z,100592.81
2018-09-08T15:40:08.863Z,100595.53
2018-09-08T15:42:37.220Z,100594.25
2018-09-08T15:45:05.756Z,100588.12
2018-09-08T15:47:34.502Z,100590.74
2018-09-08T15:50:03.031Z,100587.02
2018-09-08T15:52:31.559Z,100594.18
2018-09-08T15:55:00.134Z,100591.84
2018-09-08T15:57:28.627Z,100588.55
2018-09-08T15:59:57.102Z,100587.26
2018-09-08T16:02:25.770Z,100588.41
2018-09-08T16:04:54.297Z,100584.51
2018-09-08T16:07:22.788Z,100597.34
2018-09-08T16:09:51.342Z,100593.02
2018-09-08T16:12:19.806Z,100588.34
2018-09-08T16:14:48.282Z,100586.11
2018-09-08T16:17:17.367Z,100579.05
2018-09-08T16:19:45.766Z,100582.80
2018-09-08T16:22:14.223Z,100582.77
2018-09-08T16:24:42.723Z,100586.09
2018-09-08T16:27:11.179Z,100590.45
2018-09-08T16:29:39.632Z,100587.77
2018-09-08T16:32:08.473Z,100587.70
2018-09-08T16:34:36.879Z,100583.21
2018-09-08T16:37:05.368Z,100574.19
2018-09-08T16:39:33.848Z,100580.99
2018-09-08T16:42:02.310Z,100582.87
2018-09-08T16:44:30.890Z,100581.22
2018-09-08T16:46:59.599Z,100584.41
2018-09-08T16:49:28.127Z,100579.23
2018-09-08T16:51:56.641Z,100579.50
2018-09-08T16:54:25.282Z,100579.36
2018-09-08T16:56:53.684Z,100578.22
2018-09-08T16:59:22.099Z,100575.75
2018-09-08T17:01:50.610Z,100580.38
2018-09-08T17:04:19.106Z,100582.89
2018-09-08T17:06:47.564Z,100575.31
2018-09-08T17:09:16.236Z,100576.91
2018-09-08T17:11:44.763Z,100579.30
2018-09-08T17:14:13.266Z,100579.05
2018-09-08T17:16:41.721Z,100578.35
2018-09-08T17:19:10.155Z,100581.16
2018-09-08T17:21:38.593Z,100583.81
2018-09-08T17:24:07.302Z,100588.56
2018-09-08T17:26:35.744Z,100581.82
2018-09-08T17:29:04.246Z,100580.47
2018-09-08T17:31:32.884Z,100591.92
2018-09-08T17:34:01.441Z,100597.61
2018-09-08T17:36:29.818Z,100599.87
2018-09-08T17:38:58.397Z,100596.90
2018-09-08T17:41:26.781Z,100602.63
2018-09-08T17:43:55.269Z,100597.12
2018-09-08T17:46:23.975Z,100595.01
2018-09-08T17:48:52.466Z,100595.05
2018-09-08T17:51:21.042Z,100586.94
2018-09-08T17:53:49.642Z,100585.52
2018-09-08T17:56:18.049Z,100586.48
2018-09-08T17:58:46.672Z,100595.28
2018-09-08T18:01:16.491Z,100594.93
2018-09-08T18:03:44.986Z,100593.58
2018-09-08T18:06:13.690Z,100592.23
2018-09-08T18:08:42.335Z,100593.41
2018-09-08T18:11:10.723Z,100595.16
2018-09-08T18:13:39.283Z,100593.41
2018-09-08T18:16:07.911Z,100599.77
2018-09-08T18:18:36.378Z,100597.77
2018-09-08T18:21:04.864Z,100597.20
2018-09-08T18:23:33.311Z,100596.19
2018-09-08T18:26:01.841Z,100596.19
2018-09-08T18:28:30.347Z,100602.53
2018-09-08T18:30:58.992Z,100606.13
2018-09-08T18:33:27.425Z,100604.30
2018-09-08T18:35:56.866Z,100604.88
2018-09-08T18:38:25.442Z,100605.06
2018-09-08T18:40:53.858Z,100613.62
2018-09-08T18:43:22.352Z,100616.59
2018-09-08T18:45:51.078Z,100611.30
2018-09-08T18:48:19.546Z,100616.31
2018-09-08T18:50:48.028Z,100618.30
2018-09-08T18:53:16.660Z,100625.94
2018-09-08T18:55:45.187Z,100617.46
2018-09-08T18:58:13.690Z,100612.35
2018-09-08T19:00:42.234Z,100622.35
2018-09-08T19:03:10.699Z,100623.01
2018-09-08T19:05:39.172Z,100624.33
2018-09-08T19:08:07.691Z,100625.23
2018-09-08T19:10:36.390Z,100621.83
2018-09-08T19:13:05.545Z,100621.66
2018-09-08T19:15:34.150Z,100619.14
2018-09-08T19:18:02.694Z,100622.78
2018-09-08T19:20:36.534Z,100622.65
2018-09-08T19:23:05.152Z,100629.97
2018-09-08T19:25:33.657Z,100628.14
2018-09-08T19:28:02.362Z,100620.98
2018-09-08T19:30:30.875Z,100625.72
2018-09-08T19:32:59.361Z,100631.38
2018-09-08T19:35:33.051Z,100620.23
2018-09-08T19:38:01.562Z,100618.35
2018-09-08T19:40:35.357Z,100621.98
2018-09-08T19:43:03.910Z,100619.67
2018-09-08T19:45:32.347Z,100623.41
2018-09-08T19:48:04.274Z,100626.88
2018-09-08T19:50:33.295Z,100626.66
2018-09-08T19:53:07.161Z,100634.61
2018-09-08T19:55:35.942Z,100632.73
2018-09-08T19:58:09.909Z,100631.30
2018-09-08T20:00:38.438Z,100627.89
2018-09-08T20:03:07.092Z,100627.61
2018-09-08T20:05:35.743Z,100622.64
2018-09-08T20:08:04.355Z,100629.74
2018-09-08T20:10:32.915Z,100629.78
2018-09-08T20:13:01.338Z,100630.19
2018-09-08T20:15:29.904Z,100632.89
2018-09-08T20:17:58.386Z,100635.94
2018-09-08T20:20:27.047Z,100630.00
2018-09-08T20:22:55.472Z,100632.61
2018-09-08T20:25:23.983Z,100628.08
2018-09-08T20:27:52.466Z,100630.97
2018-09-08T20:30:20.947Z,100635.07
2018-09-08T20:32:49.407Z,100635.88
2018-09-08T20:35:18.072Z,100637.02
2018-09-08T20:37:46.504Z,100631.84
2018-09-08T20:40:15.936Z,100638.21
2018-09-08T20:42:44.473Z,100636.23
2018-09-08T20:45:12.940Z,100634.93
2018-09-08T20:47:41.406Z,100630.66
2018-09-08T20:50:09.900Z,100628.68
2018-09-08T20:52:38.402Z,100630.84
2018-09-08T20:55:06.922Z,100629.22
2018-09-08T20:57:35.574Z,100626.33
2018-09-08T21:00:04.126Z,100629.41
2018-09-08T21:02:32.582Z,100632.30
2018-09-08T21:05:01.123Z,100630.14
2018-09-08T21:07:29.563Z,100634.57
2018-09-08T21:09:58.025Z,100639.09
2018-09-08T21:12:26.736Z,100632.94
2018-09-08T21:14:55.267Z,100640.70
2018-09-08T21:17:23.682Z,100632.64
2018-09-08T21:19:52.415Z,100623.57
2018-09-08T21:22:20.946Z,100639.06
2018-09-08T21:24:49.470Z,100647.97
2018-09-08T21:27:18.167Z,100639.83
2018-09-08T21:29:46.555Z,100641.20
2018-09-08T21:32:14.962Z,100644.38
2018-09-08T21:34:43.602Z,100646.50
2018-09-08T21:37:12.154Z,100653.59
2018-09-08T21:39:40.629Z,100651.42
2018-09-08T21:42:09.127Z,100653.86
2018-09-08T21:44:37.618Z,100658.24
2018-09-08T21:47:06.161Z,100657.52
2018-09-08T21:49:34.601Z,100652.42
2018-09-08T21:52:03.011Z,100651.97
2018-09-08T21:54:31.479Z,100660.63
2018-09-08T21:57:00.136Z,100662.58
2018-09-08T21:59:28.585Z,100654.89
2018-09-08T22:01:57.123Z,100663.39
2018-09-08T22:04:25.726Z,100666.58
2018-09-08T22:06:54.211Z,100661.14
2018-09-08T22:09:22.656Z,100657.00
2018-09-08T22:11:51.326Z,100659.44
2018-09-08T22:14:19.879Z,100660.00
2018-09-08T22:16:48.299Z,100660.34
2018-09-08T22:19:16.858Z,100663.42
2018-09-08T22:21:45.333Z,100665.86
2018-09-08T22:24:13.926Z,100670.34
2018-09-08T22:26:42.449Z,100657.62
2018-09-08T22:29:10.902Z,100662.50
2018-09-08T22:31:39.411Z,100663.92
2018-09-08T22:34:07.890Z,100663.48
2018-09-08T22:36:36.378Z,100669.82
2018-09-08T22:39:06.955Z,100673.19
2018-09-08T22:41:35.444Z,100667.20
2018-09-08T22:44:03.898Z,100670.77
2018-09-08T22:46:32.575Z,100666.94
2018-09-08T22:49:00.992Z,100678.26
2018-09-08T22:51:29.602Z,100685.50
2018-09-08T22:53:58.279Z,100683.23
2018-09-08T22:56:26.766Z,100674.23
2018-09-08T22:58:55.314Z,100678.88
2018-09-08T23:01:23.943Z,100680.27
2018-09-08T23:03:52.331Z,100684.28
2018-09-08T23:06:20.878Z,100680.49
2018-09-08T23:08:49.428Z,100685.20
2018-09-08T23:11:18.103Z,100693.31
2018-09-08T23:13:46.509Z,100697.55
2018-09-08T23:16:15.018Z,100690.16
2018-09-08T23:18:43.538Z,100688.55
2018-09-08T23:21:12.030Z,100686.07
2018-09-08T23:23:40.534Z,100684.84
2018-09-08T23:26:09.123Z,100687.76
2018-09-08T23:28:37.858Z,100689.44
2018-09-08T23:31:06.623Z,100690.55
2018-09-08T23:33:35.056Z,100679.52
2018-09-08T23:36:03.539Z,100679.82
2018-09-08T23:38:32.011Z,100684.52
2018-09-08T23:41:00.506Z,100694.05
2018-09-08T23:43:29.039Z,100693.96
2018-09-08T23:45:57.519Z,100699.03
2018-09-08T23:48:25.954Z,100691.55
2018-09-08T23:50:54.338Z,100697.10
2018-09-08T23:53:22.862Z,100703.33
2018-09-08T23:55:51.350Z,100704.38
2018-09-08T23:58:19.871Z,100706.47
